RORY(METAR)
08/15 04:00
METAR RORY 141900Z AUTO 17006KT 9999 FEW017 28/25 Q1010 RMK A2984=
戻る
トップページへ戻る
IMOC Co,.Ltd.